Terminal Aerodrome Forecast
Issued by NWS La Crosse, WI

Home | Current Version | Previous Version | Text Only | Print | Product List | Glossary On
Versions: 1 2 3 4 5 6 7 8 9 10 11 12 13 14 15 16 17 18 19 20 21 22 23 24 25 26 27
000
FTUS43 KARX 010525
TAFLSE
TAF
KLSE 010525Z 0106/0206 VRB03KT P6SM VCSH SCT070
     FM011200 VRB04KT P6SM SKC
     FM011500 29007KT P6SM SKC
     FM020200 18006KT P6SM SCT120=

USA.gov is the U.S. government's official web portal to all federal, state and local government web resources and services.